createdAt,value
2018-06-18T04:10:09.009Z,30
2018-06-18T04:10:34.528Z,30
2018-06-18T04:11:00.021Z,30
2018-06-18T04:11:25.501Z,30
2018-06-18T04:11:50.993Z,30
2018-06-18T04:13:14.496Z,30
2018-06-18T04:13:39.995Z,30
2018-06-18T04:14:05.477Z,30
2018-06-18T04:14:30.970Z,30
2018-06-18T04:14:56.515Z,35
2018-06-18T04:15:22.047Z,35
2018-06-18T04:15:47.573Z,35
2018-06-18T04:16:13.064Z,35
2018-06-18T04:16:38.558Z,35
2018-06-18T04:17:04.038Z,35
2018-06-18T04:17:29.599Z,40
2018-06-18T04:17:55.087Z,40
2018-06-18T04:18:20.589Z,45
2018-06-18T04:18:46.082Z,45
2018-06-18T04:19:11.581Z,45
2018-06-18T04:19:37.089Z,50
2018-06-18T04:20:02.584Z,50
2018-06-18T04:20:28.078Z,50
2018-06-18T04:20:53.593Z,55
2018-06-18T04:21:19.068Z,55
2018-06-18T04:21:44.554Z,55
2018-06-18T04:22:10.038Z,60
2018-06-18T04:22:35.581Z,60
2018-06-18T04:23:01.076Z,60
2018-06-18T04:23:26.557Z,60
2018-06-18T04:23:52.052Z,60
2018-06-18T04:24:17.565Z,55
2018-06-18T04:24:43.143Z,55
2018-06-18T04:25:08.557Z,50
2018-06-18T04:25:34.070Z,50
2018-06-18T04:25:59.584Z,45
2018-06-18T04:26:25.108Z,45
2018-06-18T04:26:50.597Z,50
2018-06-18T04:27:16.120Z,50
2018-06-18T04:27:41.646Z,50
2018-06-18T04:28:07.133Z,50
2018-06-18T04:28:32.660Z,55
2018-06-18T04:28:58.175Z,55
2018-06-18T04:29:23.673Z,55
2018-06-18T04:29:49.152Z,55
2018-06-18T04:30:14.658Z,60
2018-06-18T04:30:40.175Z,60
2018-06-18T04:31:05.720Z,60
2018-06-18T04:31:31.151Z,60
2018-06-18T04:31:56.667Z,60
2018-06-18T04:32:22.162Z,60
2018-06-18T04:32:47.662Z,60
2018-06-18T04:33:13.138Z,60
2018-06-18T04:33:38.654Z,60
2018-06-18T04:34:04.170Z,60
2018-06-18T04:34:29.663Z,60
2018-06-18T04:34:55.145Z,60
2018-06-18T04:35:20.643Z,60
2018-06-18T04:35:46.165Z,60
2018-06-18T04:36:11.651Z,60
2018-06-18T04:36:37.169Z,60
2018-06-18T04:37:02.672Z,55
2018-06-18T04:37:28.264Z,55
2018-06-18T04:37:53.716Z,55
2018-06-18T04:38:19.166Z,50
2018-06-18T04:38:44.672Z,50
2018-06-18T04:39:10.184Z,45
2018-06-18T04:39:35.672Z,45
2018-06-18T04:40:01.175Z,40
2018-06-18T04:40:26.692Z,40
2018-06-18T04:40:52.169Z,40
2018-06-18T04:41:17.696Z,45
2018-06-18T04:41:43.192Z,45
2018-06-18T04:42:08.682Z,45
2018-06-18T04:42:34.206Z,45
2018-06-18T04:42:59.682Z,45
2018-06-18T04:43:25.184Z,45
2018-06-18T04:43:50.692Z,45
2018-06-18T04:44:16.229Z,45
2018-06-18T04:45:34.694Z,50
2018-06-18T04:46:00.200Z,50
2018-06-18T04:46:25.686Z,50
2018-06-18T04:46:51.220Z,55
2018-06-18T04:47:16.713Z,60
2018-06-18T04:47:42.243Z,65
2018-06-18T04:48:07.740Z,65
2018-06-18T04:48:33.224Z,65
2018-06-18T04:48:58.732Z,70
2018-06-18T04:49:24.191Z,75
2018-06-18T04:49:49.719Z,75
2018-06-18T04:50:15.185Z,80
2018-06-18T04:50:40.688Z,80
2018-06-18T04:51:06.200Z,75
2018-06-18T04:51:31.693Z,75
2018-06-18T04:51:57.187Z,80
2018-06-18T04:52:22.680Z,80
2018-06-18T04:52:48.166Z,80
2018-06-18T04:53:13.670Z,80
2018-06-18T04:53:39.146Z,80
2018-06-18T04:54:04.625Z,80
2018-06-18T04:54:30.128Z,80
2018-06-18T04:54:55.633Z,80
2018-06-18T04:55:21.149Z,80
2018-06-18T04:55:46.686Z,80
2018-06-18T04:56:12.185Z,80
2018-06-18T04:56:37.748Z,80
2018-06-18T04:57:03.233Z,80
2018-06-18T04:57:28.731Z,80
2018-06-18T04:57:54.211Z,85
2018-06-18T04:58:19.758Z,85
2018-06-18T04:58:45.265Z,85
2018-06-18T04:59:10.799Z,90
2018-06-18T04:59:36.298Z,90
2018-06-18T05:00:01.825Z,90
2018-06-18T05:00:27.337Z,90
2018-06-18T05:00:52.820Z,85
2018-06-18T05:01:18.341Z,90
2018-06-18T05:01:43.846Z,90
2018-06-18T05:02:09.349Z,95
2018-06-18T05:02:34.854Z,95
2018-06-18T05:03:00.360Z,95
2018-06-18T05:03:25.884Z,95
2018-06-18T05:03:51.384Z,95
2018-06-18T05:04:16.882Z,95
2018-06-18T05:04:42.360Z,90
2018-06-18T05:05:07.870Z,85
2018-06-18T05:05:33.401Z,85
2018-06-18T05:05:58.908Z,80
2018-06-18T05:06:24.396Z,80
2018-06-18T05:06:49.940Z,80
2018-06-18T05:07:15.434Z,80
2018-06-18T05:07:40.898Z,80
2018-06-18T05:08:06.387Z,75
2018-06-18T05:08:31.899Z,75
2018-06-18T05:08:57.394Z,75
2018-06-18T05:09:22.898Z,75
2018-06-18T05:09:48.406Z,80
2018-06-18T05:10:13.894Z,85
2018-06-18T05:10:39.398Z,85
2018-06-18T05:11:04.888Z,85
2018-06-18T05:11:30.390Z,85
2018-06-18T05:11:55.897Z,85
2018-06-18T05:12:21.428Z,85
2018-06-18T05:12:46.950Z,80
2018-06-18T05:13:12.423Z,80
2018-06-18T05:13:37.934Z,80
2018-06-18T05:14:03.423Z,80
2018-06-18T05:14:28.911Z,85
2018-06-18T05:14:54.384Z,85
2018-06-18T05:15:19.868Z,85
2018-06-18T05:15:45.383Z,85
2018-06-18T05:16:10.896Z,85
2018-06-18T05:16:36.397Z,85
2018-06-18T05:17:50.210Z,85
2018-06-18T05:18:15.734Z,85
2018-06-18T05:18:41.220Z,85
2018-06-18T05:19:06.727Z,85
2018-06-18T05:19:32.194Z,85
2018-06-18T05:19:57.688Z,85
2018-06-18T05:20:23.221Z,85
2018-06-18T05:20:48.706Z,85
2018-06-18T05:21:14.181Z,80
2018-06-18T05:21:39.686Z,80
2018-06-18T05:22:05.192Z,80
2018-06-18T05:22:30.674Z,80
2018-06-18T05:22:56.172Z,80
2018-06-18T05:23:21.673Z,85
2018-06-18T05:23:47.162Z,85
2018-06-18T05:24:12.679Z,85
2018-06-18T05:24:38.172Z,85
2018-06-18T05:25:03.661Z,85
2018-06-18T05:25:29.185Z,85
2018-06-18T05:25:54.695Z,85
2018-06-18T05:26:20.245Z,85
2018-06-18T05:26:45.710Z,85
2018-06-18T05:27:11.209Z,90
2018-06-18T05:27:36.689Z,90
2018-06-18T05:28:50.481Z,90
2018-06-18T05:29:15.980Z,90
2018-06-18T05:29:41.476Z,90
2018-06-18T05:30:07.021Z,90
2018-06-18T05:30:32.541Z,90
2018-06-18T05:30:58.028Z,90
2018-06-18T05:31:23.532Z,90
2018-06-18T05:31:49.033Z,90
2018-06-18T05:32:14.550Z,90
2018-06-18T05:32:40.059Z,90
2018-06-18T05:33:05.590Z,95
2018-06-18T05:33:31.049Z,90
2018-06-18T05:33:56.556Z,90
2018-06-18T05:34:22.071Z,90
2018-06-18T05:35:30.816Z,90
2018-06-18T05:35:56.287Z,90
2018-06-18T05:36:21.776Z,90
2018-06-18T05:36:47.282Z,85
2018-06-18T05:37:12.778Z,80
2018-06-18T05:37:38.256Z,80
2018-06-18T05:38:03.743Z,80
2018-06-18T05:38:29.231Z,80
2018-06-18T05:38:54.734Z,80
2018-06-18T05:39:20.217Z,80
2018-06-18T05:39:45.734Z,80
2018-06-18T05:40:11.240Z,85
2018-06-18T05:40:36.733Z,85
2018-06-18T05:41:02.193Z,85
2018-06-18T05:41:27.709Z,90
2018-06-18T05:41:53.209Z,90
2018-06-18T05:42:18.693Z,95
2018-06-18T05:42:44.206Z,95
2018-06-18T05:43:09.706Z,95
2018-06-18T05:43:35.299Z,95
2018-06-18T05:44:00.667Z,95
2018-06-18T05:44:26.153Z,95
2018-06-18T05:44:51.663Z,95
2018-06-18T05:45:17.150Z,95
2018-06-18T05:45:42.667Z,100
2018-06-18T05:46:08.148Z,100
2018-06-18T05:46:33.658Z,100
2018-06-18T05:46:59.175Z,105
2018-06-18T05:47:24.662Z,105
2018-06-18T05:47:50.201Z,105
2018-06-18T05:48:15.647Z,105
2018-06-18T05:48:41.136Z,105
2018-06-18T05:49:06.645Z,105
2018-06-18T05:49:32.122Z,105
2018-06-18T05:49:57.609Z,105
2018-06-18T05:50:23.094Z,105
2018-06-18T05:50:48.580Z,105
2018-06-18T05:51:14.084Z,110
2018-06-18T05:51:39.606Z,110
2018-06-18T05:52:05.072Z,110
2018-06-18T05:52:30.577Z,105
2018-06-18T05:52:56.102Z,105
2018-06-18T05:53:21.611Z,105
2018-06-18T05:54:45.639Z,110
2018-06-18T05:55:11.136Z,110
2018-06-18T05:55:36.644Z,110
2018-06-18T05:56:02.175Z,110
2018-06-18T05:56:27.666Z,105
2018-06-18T05:56:53.142Z,110
2018-06-18T05:57:18.645Z,110
2018-06-18T05:57:44.213Z,110
2018-06-18T05:58:09.713Z,115
2018-06-18T05:58:35.291Z,115
2018-06-18T05:59:00.734Z,120
2018-06-18T05:59:26.245Z,120
2018-06-18T05:59:51.712Z,120
2018-06-18T06:00:17.202Z,120
2018-06-18T06:00:42.727Z,125
2018-06-18T06:01:08.214Z,125
2018-06-18T06:01:33.703Z,125
2018-06-18T06:01:59.224Z,125
2018-06-18T06:02:24.754Z,120
2018-06-18T06:02:50.280Z,110
2018-06-18T06:03:15.789Z,105
2018-06-18T06:03:41.300Z,105
2018-06-18T06:04:06.784Z,105
2018-06-18T06:04:32.300Z,105
2018-06-18T06:04:57.812Z,105
2018-06-18T06:05:23.289Z,110
2018-06-18T06:05:48.792Z,110
2018-06-18T06:06:14.291Z,110
2018-06-18T06:06:39.785Z,105
2018-06-18T06:07:05.279Z,105
2018-06-18T06:07:30.777Z,105
2018-06-18T06:07:56.305Z,105
2018-06-18T06:08:21.816Z,110
2018-06-18T06:08:47.301Z,115
2018-06-18T06:09:12.839Z,115
2018-06-18T06:09:38.295Z,120
2018-06-18T06:10:03.798Z,125
2018-06-18T06:10:29.271Z,120
2018-06-18T06:10:54.786Z,125
2018-06-18T06:11:20.357Z,130
2018-06-18T06:11:45.851Z,135
2018-06-18T06:12:11.312Z,135
2018-06-18T06:12:36.859Z,135
2018-06-18T06:13:02.325Z,130
2018-06-18T06:13:27.814Z,130
2018-06-18T06:13:53.299Z,135
2018-06-18T06:14:18.818Z,135
2018-06-18T06:14:44.331Z,135
2018-06-18T06:15:09.861Z,135
2018-06-18T06:15:35.373Z,130
2018-06-18T06:16:00.834Z,135
2018-06-18T06:16:26.331Z,140
2018-06-18T06:16:51.895Z,145
2018-06-18T06:17:17.312Z,145
2018-06-18T06:17:42.819Z,140
2018-06-18T06:18:08.316Z,135
2018-06-18T06:18:33.816Z,130
2018-06-18T06:18:59.319Z,125
2018-06-18T06:19:24.809Z,125
2018-06-18T06:19:50.312Z,120
2018-06-18T06:20:15.819Z,115
2018-06-18T06:20:41.302Z,110
2018-06-18T06:21:06.787Z,105
2018-06-18T06:21:32.290Z,100
2018-06-18T06:21:57.795Z,95
2018-06-18T06:22:23.302Z,95
2018-06-18T06:22:48.787Z,90
2018-06-18T06:23:14.281Z,90
2018-06-18T06:23:39.792Z,90
2018-06-18T06:25:08.893Z,115
2018-06-18T06:25:34.396Z,110
2018-06-18T06:25:59.905Z,110
2018-06-18T06:26:25.438Z,115
2018-06-18T06:26:50.905Z,115
2018-06-18T06:27:16.417Z,115
2018-06-18T06:27:41.967Z,115
2018-06-18T06:28:07.413Z,120
2018-06-18T06:28:32.887Z,125
2018-06-18T06:28:58.417Z,120
2018-06-18T06:29:23.920Z,115
2018-06-18T06:29:49.422Z,110
2018-06-18T06:30:14.907Z,105
2018-06-18T06:30:40.412Z,105
2018-06-18T06:31:05.926Z,110
2018-06-18T06:31:31.459Z,115
2018-06-18T06:31:56.952Z,120
2018-06-18T06:32:22.490Z,130
2018-06-18T06:32:47.999Z,135
2018-06-18T06:33:13.507Z,140
2018-06-18T06:33:39.001Z,150
2018-06-18T06:34:04.525Z,155
2018-06-18T06:34:29.983Z,150
2018-06-18T06:34:55.474Z,160
2018-06-18T06:35:20.956Z,170
2018-06-18T06:35:46.440Z,180
2018-06-18T06:36:11.926Z,180
2018-06-18T06:36:37.417Z,170
2018-06-18T06:37:02.916Z,160
2018-06-18T06:37:28.435Z,165
2018-06-18T06:37:53.925Z,170
2018-06-18T06:38:19.377Z,180
2018-06-18T06:38:44.994Z,185
2018-06-18T06:39:10.507Z,185
2018-06-18T06:39:36.025Z,185
2018-06-18T06:40:01.521Z,180
2018-06-18T06:40:26.997Z,180
2018-06-18T06:40:52.518Z,180
2018-06-18T06:41:18.049Z,180
2018-06-18T06:41:43.568Z,180
2018-06-18T06:42:09.081Z,180
2018-06-18T06:42:34.572Z,180
2018-06-18T06:43:00.099Z,180
2018-06-18T06:43:25.581Z,185
2018-06-18T06:44:34.312Z,195
2018-06-18T06:44:59.826Z,190
2018-06-18T06:45:25.305Z,180
2018-06-18T06:45:50.811Z,175
2018-06-18T06:46:16.330Z,170
2018-06-18T06:46:41.835Z,170
2018-06-18T06:47:07.313Z,170
2018-06-18T06:47:32.791Z,170
2018-06-18T06:47:58.314Z,170
2018-06-18T06:48:23.795Z,175
2018-06-18T06:48:49.275Z,180
2018-06-18T06:49:14.768Z,185
2018-06-18T06:49:40.274Z,190
2018-06-18T06:50:05.770Z,195
2018-06-18T06:50:31.267Z,200
2018-06-18T06:50:56.754Z,210
2018-06-18T06:51:22.252Z,225
2018-06-18T06:51:47.745Z,230
2018-06-18T06:52:13.240Z,225
2018-06-18T06:52:38.737Z,210
2018-06-18T06:53:57.694Z,205
2018-06-18T06:54:23.202Z,205
2018-06-18T06:54:48.720Z,200
2018-06-18T06:55:14.224Z,200
2018-06-18T06:55:39.704Z,200
2018-06-18T06:56:05.208Z,195
2018-06-18T06:56:30.675Z,190
2018-06-18T06:56:56.204Z,185
2018-06-18T06:57:21.707Z,175
2018-06-18T06:57:47.198Z,175
2018-06-18T06:58:12.692Z,180
2018-06-18T06:58:38.221Z,190
2018-06-18T06:59:03.721Z,195
2018-06-18T06:59:29.250Z,195
2018-06-18T06:59:54.748Z,195
2018-06-18T07:00:20.246Z,190
2018-06-18T07:00:45.762Z,195
2018-06-18T07:01:11.300Z,195
2018-06-18T07:01:36.768Z,195
2018-06-18T07:02:02.278Z,185
2018-06-18T07:02:27.776Z,175
2018-06-18T07:02:53.276Z,170
2018-06-18T07:03:18.822Z,170
2018-06-18T07:03:44.250Z,175
2018-06-18T07:04:09.745Z,175
2018-06-18T07:04:35.289Z,170
2018-06-18T07:05:00.785Z,170
2018-06-18T07:05:26.302Z,175
2018-06-18T07:05:51.801Z,180
2018-06-18T07:06:17.301Z,185
2018-06-18T07:06:42.837Z,185
2018-06-18T07:07:08.338Z,190
2018-06-18T07:07:33.821Z,190
2018-06-18T07:07:59.374Z,195
2018-06-18T07:08:24.776Z,200
2018-06-18T07:08:50.280Z,200
2018-06-18T07:09:15.764Z,195
2018-06-18T07:09:41.247Z,190
2018-06-18T07:10:06.746Z,190
2018-06-18T07:10:32.213Z,195
2018-06-18T07:10:57.753Z,195
2018-06-18T07:11:23.234Z,190
2018-06-18T07:11:48.744Z,180
2018-06-18T07:12:14.254Z,175
2018-06-18T07:12:39.728Z,170
2018-06-18T07:13:05.214Z,165
2018-06-18T07:13:30.874Z,160
2018-06-18T07:13:56.235Z,160
2018-06-18T07:14:21.684Z,160
2018-06-18T07:14:47.179Z,165
2018-06-18T07:15:12.680Z,165
2018-06-18T07:15:38.219Z,165
2018-06-18T07:16:03.728Z,160
2018-06-18T07:16:29.218Z,155
2018-06-18T07:16:54.705Z,160
2018-06-18T07:17:20.189Z,165
2018-06-18T07:17:45.697Z,165
2018-06-18T07:18:11.197Z,160
2018-06-18T07:18:36.674Z,160
2018-06-18T07:19:50.515Z,170
2018-06-18T07:20:16.044Z,175
2018-06-18T07:20:41.556Z,185
2018-06-18T07:21:07.059Z,190
2018-06-18T07:21:32.564Z,205
2018-06-18T07:21:58.053Z,210
2018-06-18T07:22:23.566Z,215
2018-06-18T07:22:49.091Z,220
2018-06-18T07:23:14.625Z,220
2018-06-18T07:23:40.135Z,230
2018-06-18T07:24:05.606Z,240
2018-06-18T07:24:31.101Z,260
2018-06-18T07:24:56.585Z,270
2018-06-18T07:25:22.112Z,280
2018-06-18T07:25:47.592Z,285
2018-06-18T07:26:13.117Z,280
2018-06-18T07:26:38.609Z,275
2018-06-18T07:27:04.198Z,280
2018-06-18T07:27:29.591Z,295
2018-06-18T07:27:55.089Z,310
2018-06-18T07:28:20.559Z,325
2018-06-18T07:28:46.039Z,335
2018-06-18T07:29:11.533Z,345
2018-06-18T07:29:37.063Z,350
2018-06-18T07:30:02.499Z,355
2018-06-18T07:30:28.149Z,365
2018-06-18T07:30:53.541Z,375
2018-06-18T07:31:19.012Z,375
2018-06-18T07:32:27.767Z,360
2018-06-18T07:32:53.256Z,360
2018-06-18T07:33:18.737Z,360
2018-06-18T07:33:44.264Z,360
2018-06-18T07:34:09.783Z,355
2018-06-18T07:34:35.274Z,365
2018-06-18T07:35:00.767Z,375
2018-06-18T07:35:26.294Z,385
2018-06-18T07:35:51.832Z,395
2018-06-18T07:36:17.338Z,395
2018-06-18T07:36:42.798Z,390
2018-06-18T07:37:08.304Z,380
2018-06-18T07:37:33.815Z,375
2018-06-18T07:37:59.300Z,370
2018-06-18T07:38:24.820Z,370
2018-06-18T07:38:50.291Z,365
2018-06-18T07:39:15.801Z,360
2018-06-18T07:39:41.286Z,350
2018-06-18T07:40:06.809Z,345
2018-06-18T07:40:32.307Z,340
2018-06-18T07:40:57.811Z,325
2018-06-18T07:41:23.307Z,320
2018-06-18T07:41:48.830Z,305
2018-06-18T07:42:14.321Z,295
2018-06-18T07:42:39.811Z,285
2018-06-18T07:43:05.325Z,275
2018-06-18T07:43:30.835Z,265
2018-06-18T07:43:56.310Z,260
2018-06-18T07:44:21.812Z,255
2018-06-18T07:44:47.307Z,245
2018-06-18T07:45:12.833Z,245
2018-06-18T07:45:38.370Z,240
2018-06-18T07:46:03.799Z,240
2018-06-18T07:46:29.291Z,235
2018-06-18T07:46:54.786Z,230
2018-06-18T07:47:20.310Z,225
2018-06-18T07:47:45.813Z,215
2018-06-18T07:48:11.322Z,205
2018-06-18T07:48:36.863Z,200
2018-06-18T07:49:02.364Z,185
2018-06-18T07:49:27.869Z,180
2018-06-18T07:49:53.367Z,175
2018-06-18T07:50:18.885Z,180
2018-06-18T07:50:44.354Z,200
2018-06-18T07:51:09.860Z,210
2018-06-18T07:51:35.421Z,220
2018-06-18T07:52:00.906Z,225
2018-06-18T07:52:26.391Z,225
2018-06-18T07:52:51.896Z,225
2018-06-18T07:53:17.406Z,225
2018-06-18T07:53:42.931Z,225
2018-06-18T07:54:08.445Z,220
2018-06-18T07:54:33.997Z,220
2018-06-18T07:54:59.498Z,225
2018-06-18T07:55:24.993Z,225
2018-06-18T07:55:50.485Z,230
2018-06-18T07:56:15.976Z,235
2018-06-18T07:56:41.490Z,240
2018-06-18T07:57:06.980Z,245
2018-06-18T07:57:32.502Z,250
2018-06-18T07:57:57.981Z,260
2018-06-18T07:58:23.475Z,250
2018-06-18T07:58:48.965Z,245
2018-06-18T07:59:14.460Z,245
2018-06-18T07:59:39.956Z,245
2018-06-18T08:00:05.459Z,250
2018-06-18T08:00:31.007Z,255
2018-06-18T08:00:56.500Z,265
2018-06-18T08:01:21.992Z,270
2018-06-18T08:01:47.494Z,270
2018-06-18T08:02:12.986Z,275
2018-06-18T08:02:38.504Z,275
2018-06-18T08:03:04.010Z,275
2018-06-18T08:03:29.555Z,270
2018-06-18T08:03:55.034Z,270
2018-06-18T08:04:20.544Z,260
2018-06-18T08:04:46.037Z,265
2018-06-18T08:05:11.552Z,250
2018-06-18T08:05:37.092Z,250
2018-06-18T08:06:02.603Z,250
2018-06-18T08:06:28.104Z,250
2018-06-18T08:06:53.573Z,255
2018-06-18T08:07:19.057Z,255
2018-06-18T08:07:44.545Z,255
2018-06-18T08:08:10.029Z,260
2018-06-18T08:08:35.560Z,255
2018-06-18T08:09:01.068Z,250
2018-06-18T08:09:26.597Z,250
2018-06-18T08:09:52.090Z,245
2018-06-18T08:11:21.654Z,250
2018-06-18T08:11:47.159Z,250
2018-06-18T08:12:12.660Z,250
2018-06-18T08:12:38.154Z,250
2018-06-18T08:13:03.659Z,255
2018-06-18T08:13:29.167Z,255
2018-06-18T08:13:54.666Z,255
2018-06-18T08:14:20.182Z,260
2018-06-18T08:14:45.652Z,260
2018-06-18T08:15:11.230Z,265
2018-06-18T08:15:36.656Z,270
2018-06-18T08:16:02.148Z,275
2018-06-18T08:16:27.621Z,280
2018-06-18T08:16:53.114Z,285
2018-06-18T08:17:18.651Z,290
2018-06-18T08:17:44.123Z,290
2018-06-18T08:18:09.661Z,295
2018-06-18T08:18:35.155Z,300
2018-06-18T08:19:00.664Z,300
2018-06-18T08:19:26.153Z,305
2018-06-18T08:19:51.633Z,305
2018-06-18T08:20:17.125Z,310
2018-06-18T08:20:42.631Z,310
2018-06-18T08:21:08.102Z,305
2018-06-18T08:21:33.599Z,305
2018-06-18T08:21:59.122Z,305
2018-06-18T08:22:24.625Z,305
2018-06-18T08:22:50.166Z,305
2018-06-18T08:23:15.631Z,310
2018-06-18T08:23:41.173Z,310
2018-06-18T08:24:06.612Z,315
2018-06-18T08:24:32.119Z,315
2018-06-18T08:24:57.700Z,315
2018-06-18T08:25:23.158Z,315
2018-06-18T08:25:48.663Z,310
2018-06-18T08:26:14.162Z,310
2018-06-18T08:26:39.639Z,305
2018-06-18T08:27:05.174Z,305
2018-06-18T08:27:30.703Z,305
2018-06-18T08:27:56.177Z,305
2018-06-18T08:28:21.661Z,300
2018-06-18T08:28:47.174Z,300
2018-06-18T08:29:12.672Z,305
2018-06-18T08:29:38.189Z,300
2018-06-18T08:30:03.681Z,300
2018-06-18T08:30:29.144Z,305
2018-06-18T08:30:54.654Z,310
2018-06-18T08:31:20.146Z,315
2018-06-18T08:31:45.653Z,320
2018-06-18T08:32:11.144Z,325
2018-06-18T08:32:36.664Z,335
2018-06-18T08:33:02.127Z,340
2018-06-18T08:33:27.613Z,345
2018-06-18T08:33:53.093Z,350
2018-06-18T08:34:18.580Z,355
2018-06-18T08:34:44.093Z,365
2018-06-18T08:35:09.563Z,375
2018-06-18T08:35:35.039Z,380
2018-06-18T08:36:00.549Z,390
2018-06-18T08:36:26.045Z,395
2018-06-18T08:36:51.549Z,400
2018-06-18T08:37:17.032Z,405
2018-06-18T08:37:42.526Z,420
2018-06-18T08:38:08.026Z,425
2018-06-18T08:38:33.528Z,440
2018-06-18T08:38:59.022Z,445
2018-06-18T08:39:24.499Z,455
2018-06-18T08:39:50.029Z,470
2018-06-18T08:40:15.609Z,475
2018-06-18T08:40:41.033Z,485
2018-06-18T08:41:06.520Z,495
2018-06-18T08:41:31.995Z,500
2018-06-18T08:41:57.495Z,495
2018-06-18T08:42:23.026Z,500
2018-06-18T08:42:48.561Z,520
2018-06-18T08:43:14.050Z,530
2018-06-18T08:43:39.554Z,505
2018-06-18T08:44:05.019Z,510
2018-06-18T08:44:30.526Z,510
2018-06-18T08:44:56.106Z,500
2018-06-18T08:45:21.498Z,510
2018-06-18T08:45:47.020Z,505
2018-06-18T08:46:12.515Z,495
2018-06-18T08:46:38.029Z,525
2018-06-18T08:47:03.528Z,530
2018-06-18T08:47:28.994Z,515
2018-06-18T08:47:54.560Z,455
2018-06-18T08:48:20.059Z,410
2018-06-18T08:48:45.557Z,430
2018-06-18T08:49:11.048Z,430
2018-06-18T08:49:36.581Z,400
2018-06-18T08:50:02.058Z,405
2018-06-18T08:50:27.600Z,395
2018-06-18T08:50:53.065Z,370
2018-06-18T08:51:18.553Z,395
2018-06-18T08:51:44.060Z,415
2018-06-18T08:52:09.560Z,475
2018-06-18T08:52:35.059Z,535
2018-06-18T08:53:00.562Z,550
2018-06-18T08:53:26.060Z,475
2018-06-18T08:53:51.565Z,445
2018-06-18T08:54:17.062Z,415
2018-06-18T08:54:42.555Z,420
2018-06-18T08:55:08.047Z,455
2018-06-18T08:55:33.555Z,465
2018-06-18T08:55:59.082Z,480
2018-06-18T08:56:24.592Z,455
2018-06-18T08:56:50.049Z,425
2018-06-18T08:57:15.542Z,395
2018-06-18T08:57:41.053Z,400
2018-06-18T08:58:06.545Z,410
2018-06-18T08:58:32.040Z,410
2018-06-18T08:58:57.553Z,420
2018-06-18T08:59:23.040Z,420
2018-06-18T08:59:48.536Z,430
2018-06-18T09:00:14.059Z,460
2018-06-18T09:00:39.565Z,465
2018-06-18T09:01:05.058Z,475
2018-06-18T09:01:30.591Z,490
2018-06-18T09:01:56.063Z,460
2018-06-18T09:02:21.554Z,420
2018-06-18T09:03:45.596Z,410
2018-06-18T09:04:11.087Z,395
2018-06-18T09:04:36.592Z,380
2018-06-18T09:05:02.162Z,400
2018-06-18T09:05:27.714Z,405
2018-06-18T09:05:53.276Z,415
2018-06-18T09:06:18.708Z,435
2018-06-18T09:06:44.215Z,440
2018-06-18T09:07:09.704Z,460
2018-06-18T09:07:35.200Z,455
2018-06-18T09:08:00.710Z,470
2018-06-18T09:08:26.238Z,440
2018-06-18T09:08:51.754Z,395
2018-06-18T09:09:17.269Z,370
2018-06-18T09:09:42.849Z,375
2018-06-18T09:10:08.346Z,380
2018-06-18T09:10:33.866Z,410
2018-06-18T09:10:59.398Z,465
2018-06-18T09:11:24.890Z,515
2018-06-18T09:11:50.397Z,510
2018-06-18T09:12:15.984Z,510
2018-06-18T09:12:41.668Z,465
2018-06-18T09:13:07.170Z,485
2018-06-18T09:13:32.662Z,525
2018-06-18T09:13:58.146Z,540
2018-06-18T09:14:23.699Z,570
2018-06-18T09:14:49.188Z,570
2018-06-18T09:15:14.676Z,565
2018-06-18T09:15:40.168Z,575
2018-06-18T09:16:05.643Z,540
2018-06-18T09:16:31.190Z,460
2018-06-18T09:16:56.655Z,475
2018-06-18T09:17:22.197Z,545
2018-06-18T09:17:47.687Z,555
2018-06-18T09:18:13.193Z,525
2018-06-18T09:18:38.686Z,505
2018-06-18T09:19:04.188Z,450
2018-06-18T09:19:29.681Z,415
2018-06-18T09:19:55.199Z,360
2018-06-18T09:20:20.686Z,330
2018-06-18T09:20:46.153Z,360
2018-06-18T09:21:11.644Z,375
2018-06-18T09:21:37.150Z,385
2018-06-18T09:22:02.671Z,360
2018-06-18T09:22:28.147Z,325
2018-06-18T09:22:53.743Z,320
2018-06-18T09:23:19.201Z,320
2018-06-18T09:23:44.792Z,315
2018-06-18T09:24:10.273Z,305
2018-06-18T09:24:35.768Z,325
2018-06-18T09:25:01.297Z,315
2018-06-18T09:25:26.825Z,270
2018-06-18T09:25:52.328Z,255
2018-06-18T09:26:17.844Z,270
2018-06-18T09:26:43.304Z,260
2018-06-18T09:27:08.771Z,240
2018-06-18T09:27:34.276Z,215
2018-06-18T09:27:59.750Z,220
2018-06-18T09:28:25.212Z,225
2018-06-18T09:28:50.685Z,205
2018-06-18T09:29:16.203Z,190
2018-06-18T09:29:41.705Z,190
2018-06-18T09:30:07.224Z,195
2018-06-18T09:30:32.756Z,195
2018-06-18T09:30:58.243Z,175
2018-06-18T09:31:23.740Z,155
2018-06-18T09:31:49.251Z,140
2018-06-18T09:32:15.014Z,135
2018-06-18T09:32:40.320Z,130
2018-06-18T09:33:05.732Z,135
2018-06-18T09:33:31.241Z,145
2018-06-18T09:33:56.800Z,150
2018-06-18T09:34:22.238Z,145
2018-06-18T09:34:47.781Z,140
2018-06-18T09:35:13.284Z,140
2018-06-18T09:35:38.858Z,140
2018-06-18T09:36:04.307Z,150
2018-06-18T09:36:29.820Z,160
2018-06-18T09:36:55.292Z,170
2018-06-18T09:37:20.779Z,170
2018-06-18T09:37:46.378Z,165
2018-06-18T09:38:11.896Z,170
2018-06-18T09:38:37.539Z,190
2018-06-18T09:39:03.017Z,220
2018-06-18T09:39:28.532Z,250
2018-06-18T09:39:54.028Z,290
2018-06-18T09:40:19.539Z,325
2018-06-18T09:40:45.023Z,375
2018-06-18T09:41:10.519Z,435
2018-06-18T09:41:36.007Z,500
2018-06-18T09:42:01.503Z,535
2018-06-18T09:42:26.984Z,555
2018-06-18T09:42:52.502Z,550
2018-06-18T09:43:17.950Z,520
2018-06-18T09:43:43.448Z,480
2018-06-18T09:44:08.979Z,465
2018-06-18T09:44:34.456Z,450
2018-06-18T09:44:59.890Z,435
2018-06-18T09:45:25.416Z,410
2018-06-18T09:45:50.869Z,400
2018-06-18T09:46:16.323Z,380
2018-06-18T09:46:41.805Z,360
2018-06-18T09:47:07.320Z,340
2018-06-18T09:47:32.917Z,325
2018-06-18T09:47:58.466Z,325
2018-06-18T09:48:24.261Z,305
2018-06-18T09:48:50.069Z,285
2018-06-18T09:49:15.631Z,275
2018-06-18T09:49:41.270Z,260
2018-06-18T09:50:06.751Z,245
2018-06-18T09:50:32.232Z,235
2018-06-18T09:50:57.689Z,220
2018-06-18T09:51:23.188Z,205
2018-06-18T09:51:48.660Z,185
2018-06-18T09:52:14.121Z,180
2018-06-18T09:52:39.589Z,180
2018-06-18T09:53:05.023Z,180
2018-06-18T09:53:30.501Z,185
2018-06-18T09:53:56.013Z,185
2018-06-18T09:54:21.440Z,175
2018-06-18T09:54:46.936Z,165
2018-06-18T09:55:12.409Z,160
2018-06-18T09:55:37.876Z,160
2018-06-18T09:56:03.411Z,170
2018-06-18T09:56:28.833Z,190
2018-06-18T09:56:54.340Z,205
2018-06-18T09:57:19.804Z,200
2018-06-18T09:57:45.276Z,185
2018-06-18T09:58:10.735Z,170
2018-06-18T09:58:36.260Z,160
2018-06-18T09:59:01.687Z,155
2018-06-18T09:59:27.144Z,155
2018-06-18T09:59:52.664Z,155
2018-06-18T10:00:18.117Z,155
2018-06-18T10:00:43.886Z,155
2018-06-18T10:01:09.286Z,160
2018-06-18T10:01:34.733Z,195
2018-06-18T10:02:00.257Z,265
2018-06-18T10:02:25.764Z,350
2018-06-18T10:02:51.139Z,415
2018-06-18T10:03:16.614Z,450
2018-06-18T10:03:42.152Z,480
2018-06-18T10:04:07.600Z,515
2018-06-18T10:04:33.139Z,555
2018-06-18T10:04:58.611Z,590
2018-06-18T10:05:24.101Z,610
2018-06-18T10:05:49.543Z,645
2018-06-18T10:06:15.064Z,665
2018-06-18T10:06:40.585Z,660
2018-06-18T10:07:05.999Z,645
2018-06-18T10:07:31.441Z,625
2018-06-18T10:07:56.910Z,590
2018-06-18T10:08:22.489Z,565
2018-06-18T10:08:48.007Z,555
2018-06-18T10:09:13.463Z,560
2018-06-18T10:09:38.891Z,560
2018-06-18T10:10:04.374Z,560
2018-06-18T10:10:29.854Z,545
2018-06-18T10:10:55.357Z,520
2018-06-18T10:11:20.778Z,495
2018-06-18T10:11:46.252Z,470
2018-06-18T10:12:11.742Z,475
2018-06-18T10:12:37.240Z,470
2018-06-18T10:13:02.709Z,415
2018-06-18T10:13:28.209Z,375
2018-06-18T10:13:53.703Z,345
2018-06-18T10:14:19.229Z,340
2018-06-18T10:14:44.672Z,325
2018-06-18T10:15:10.171Z,300
2018-06-18T10:15:35.679Z,285